createdAt,value
2018-10-19T00:00:54.394Z,28.50
2018-10-19T00:03:27.278Z,27.23
2018-10-19T00:06:02.205Z,28.40
2018-10-19T00:08:32.546Z,30.20
2018-10-19T00:11:02.554Z,30.13
2018-10-19T00:13:32.561Z,30.20
2018-10-19T00:16:02.548Z,31.23
2018-10-19T00:18:32.898Z,31.93
2018-10-19T00:21:02.976Z,31.50
2018-10-19T00:23:35.924Z,34.43
2018-10-19T00:26:05.971Z,35.63
2018-10-19T00:28:35.927Z,31.30
2018-10-19T00:31:05.940Z,30.73
2018-10-19T00:33:36.070Z,30.87
2018-10-19T00:36:06.500Z,33.50
2018-10-19T00:38:37.267Z,30.13
2018-10-19T00:41:07.665Z,31.33
2018-10-19T00:43:37.692Z,31.63
2018-10-19T00:46:07.785Z,32.57
2018-10-19T00:48:37.803Z,34.47
2018-10-19T00:51:08.436Z,34.13
2018-10-19T00:53:38.861Z,33.23
2018-10-19T00:56:08.810Z,37.17
2018-10-19T00:58:38.851Z,38.23
2018-10-19T01:01:10.308Z,35.60
2018-10-19T01:03:40.877Z,35.30
2018-10-19T01:06:10.807Z,36.50
2018-10-19T01:08:40.756Z,37.23
2018-10-19T01:11:11.922Z,34.23
2018-10-19T01:13:41.850Z,33.27
2018-10-19T01:16:27.604Z,34.00
2018-10-19T01:18:57.981Z,33.67
2018-10-19T01:21:28.111Z,34.17
2018-10-19T01:23:58.199Z,34.77
2018-10-19T01:26:33.267Z,34.97
2018-10-19T01:29:03.465Z,35.77
2018-10-19T01:31:33.894Z,35.17
2018-10-19T01:34:04.469Z,36.80
2018-10-19T01:36:40.119Z,37.53
2018-10-19T01:39:11.091Z,32.97
2018-10-19T01:41:45.564Z,33.37
2018-10-19T01:44:16.224Z,35.00
2018-10-19T01:46:48.774Z,36.23
2018-10-19T01:49:20.632Z,38.07
2018-10-19T01:51:51.390Z,37.40
2018-10-19T01:54:21.727Z,37.93
2018-10-19T01:56:52.123Z,38.70
2018-10-19T01:59:22.699Z,37.23
2018-10-19T02:01:54.925Z,38.17
2018-10-19T02:04:25.476Z,36.17
2018-10-19T02:06:56.248Z,36.20
2018-10-19T02:09:36.798Z,37.87
2018-10-19T02:12:07.206Z,39.27
2018-10-19T02:14:38.497Z,39.43
2018-10-19T02:17:08.710Z,37.53
2018-10-19T02:19:39.269Z,39.67
2018-10-19T02:22:09.705Z,37.83
2018-10-19T02:24:41.311Z,37.13
2018-10-19T02:27:11.702Z,35.93
2018-10-19T02:29:42.087Z,36.93
2018-10-19T02:32:12.238Z,37.07
2018-10-19T02:34:42.691Z,37.00
2018-10-19T02:37:13.062Z,42.10
2018-10-19T02:39:44.235Z,39.90
2018-10-19T02:42:14.354Z,39.57
2018-10-19T02:44:44.759Z,36.63
2018-10-19T02:47:15.291Z,36.40
2018-10-19T02:49:46.305Z,35.67
2018-10-19T02:52:17.974Z,37.43
2018-10-19T02:54:49.807Z,39.20
2018-10-19T02:57:21.073Z,37.30
2018-10-19T02:59:51.856Z,38.40
2018-10-19T03:02:21.995Z,40.30
2018-10-19T03:04:52.014Z,38.73
2018-10-19T03:07:22.381Z,39.50
2018-10-19T03:09:53.862Z,39.67
2018-10-19T03:12:24.161Z,36.87
2018-10-19T03:14:54.532Z,39.47
2018-10-19T03:17:25.217Z,38.13
2018-10-19T03:19:55.302Z,37.37
2018-10-19T03:22:28.898Z,38.40
2018-10-19T03:24:59.177Z,37.03
2018-10-19T03:27:29.290Z,38.90
2018-10-19T03:30:00.757Z,40.30
2018-10-19T03:32:30.721Z,39.67
2018-10-19T03:35:00.785Z,38.43
2018-10-19T03:37:31.916Z,37.57
2018-10-19T03:40:02.426Z,37.30
2018-10-19T03:42:32.501Z,38.97
2018-10-19T03:45:02.631Z,39.60
2018-10-19T03:47:32.658Z,40.43
2018-10-19T03:50:02.747Z,41.07
2018-10-19T03:52:33.243Z,41.83
2018-10-19T03:55:28.018Z,41.13
2018-10-19T03:58:00.555Z,41.70
2018-10-19T04:00:30.875Z,38.90
2018-10-19T04:03:00.805Z,37.67
2018-10-19T04:05:30.986Z,39.93
2018-10-19T04:08:01.197Z,40.20
2018-10-19T04:10:32.317Z,40.50
2018-10-19T04:13:02.999Z,39.37
2018-10-19T04:15:33.711Z,39.60
2018-10-19T04:18:03.725Z,37.50
2018-10-19T04:20:33.676Z,37.30
2018-10-19T04:23:08.684Z,39.83
2018-10-19T04:25:49.253Z,37.27
2018-10-19T04:28:19.231Z,39.27
2018-10-19T04:30:49.208Z,38.53
2018-10-19T04:33:22.103Z,37.90
2018-10-19T04:35:52.556Z,39.83
2018-10-19T04:38:22.556Z,39.37
2018-10-19T04:40:52.542Z,38.87
2018-10-19T04:43:22.427Z,41.57
2018-10-19T04:45:52.525Z,42.60
2018-10-19T04:48:23.976Z,40.33
2018-10-19T04:50:54.419Z,40.93
2018-10-19T05:07:04.433Z,39.23
2018-10-19T05:09:34.578Z,40.80
2018-10-19T05:12:06.158Z,42.27
2018-10-19T05:14:36.335Z,44.10
2018-10-19T05:17:06.682Z,41.80
2018-10-19T05:19:36.803Z,44.13
2018-10-19T05:22:07.356Z,42.63
2018-10-19T05:24:37.538Z,43.20
2018-10-19T05:27:07.671Z,43.03
2018-10-19T05:29:42.093Z,44.17
2018-10-19T05:32:12.150Z,43.10
2018-10-19T05:34:44.678Z,44.73
2018-10-19T05:37:14.836Z,45.27
2018-10-19T05:39:44.958Z,41.83
2018-10-19T05:42:14.839Z,42.70
2018-10-19T05:44:51.535Z,44.63
2018-10-19T05:47:32.670Z,43.30
2018-10-19T05:50:03.242Z,42.37
2018-10-19T05:52:46.468Z,43.10
2018-10-19T05:55:16.527Z,41.70
2018-10-19T05:57:46.726Z,43.57
2018-10-19T06:00:18.085Z,43.80
2018-10-19T06:02:48.072Z,46.07
2018-10-19T06:05:17.926Z,44.77
2018-10-19T06:07:49.334Z,47.03
2018-10-19T06:10:19.352Z,43.27
2018-10-19T06:12:49.261Z,45.03
2018-10-19T06:15:19.396Z,43.17
2018-10-19T06:17:49.390Z,43.80
2018-10-19T06:20:19.272Z,44.27
2018-10-19T06:22:50.340Z,43.20
2018-10-19T06:25:20.143Z,45.70
2018-10-19T06:27:50.142Z,45.93
2018-10-19T06:30:20.148Z,44.23
2018-10-19T06:32:50.193Z,42.87
2018-10-19T06:35:20.255Z,43.00
2018-10-19T06:37:50.660Z,44.83
2018-10-19T06:40:20.732Z,40.97
2018-10-19T06:42:50.726Z,43.53
2018-10-19T06:45:20.774Z,42.57
2018-10-19T06:47:50.878Z,42.20
2018-10-19T06:50:20.865Z,43.47
2018-10-19T06:52:51.052Z,41.33
2018-10-19T06:55:21.044Z,45.13
2018-10-19T06:57:51.022Z,45.53
2018-10-19T07:00:21.173Z,47.83
2018-10-19T07:02:51.438Z,50.47
2018-10-19T07:05:21.443Z,50.73
2018-10-19T07:07:51.443Z,49.73
2018-10-19T07:10:21.843Z,48.53
2018-10-19T07:12:51.925Z,46.00
2018-10-19T07:15:21.854Z,44.87
2018-10-19T07:17:51.800Z,45.50
2018-10-19T07:20:21.989Z,46.37
2018-10-19T07:22:52.178Z,44.33
2018-10-19T07:25:22.440Z,45.83
2018-10-19T07:27:53.901Z,47.43
2018-10-19T07:30:24.016Z,47.87
2018-10-19T07:32:54.345Z,46.63
2018-10-19T07:35:25.192Z,45.73
2018-10-19T07:37:55.497Z,49.13
2018-10-19T07:40:26.559Z,49.70
2018-10-19T07:42:56.589Z,51.90
2018-10-19T07:45:26.665Z,52.80
2018-10-19T07:47:56.793Z,53.80
2018-10-19T07:50:26.914Z,56.43
2018-10-19T07:52:58.235Z,55.23
2018-10-19T07:55:28.147Z,53.93
2018-10-19T07:57:58.193Z,54.13
2018-10-19T08:00:28.227Z,55.43
2018-10-19T08:02:58.273Z,55.10
2018-10-19T08:05:28.624Z,53.37
2018-10-19T08:07:58.689Z,53.17
2018-10-19T08:10:28.758Z,52.00
2018-10-19T08:12:59.594Z,52.83
2018-10-19T08:15:29.776Z,49.13
2018-10-19T08:17:59.994Z,52.30
2018-10-19T08:20:30.601Z,51.17
2018-10-19T08:23:43.642Z,49.70
2018-10-19T08:26:14.016Z,48.73
2018-10-19T08:28:44.577Z,48.93
2018-10-19T08:31:14.583Z,48.27
2018-10-19T08:33:44.599Z,47.10
2018-10-19T08:36:15.549Z,45.73
2018-10-19T08:38:45.883Z,48.00
2018-10-19T08:41:26.888Z,44.40
2018-10-19T08:43:57.737Z,44.93
2018-10-19T08:46:32.941Z,44.97
2018-10-19T08:49:04.173Z,41.23
2018-10-19T08:51:34.896Z,42.13
2018-10-19T08:54:06.756Z,40.00
2018-10-19T08:56:36.781Z,37.77
2018-10-19T08:59:07.339Z,39.93
2018-10-19T09:01:37.344Z,39.73
2018-10-19T09:04:07.376Z,38.57
2018-10-19T09:06:37.453Z,39.17
2018-10-19T09:09:10.536Z,39.50
2018-10-19T09:11:41.004Z,39.80
2018-10-19T09:14:22.220Z,39.20
2018-10-19T09:16:52.638Z,40.47
2018-10-19T09:19:26.602Z,40.57
2018-10-19T09:21:56.723Z,42.33
2018-10-19T09:24:34.342Z,42.00
2018-10-19T09:27:05.978Z,42.37
2018-10-19T09:29:36.274Z,40.67
2018-10-19T09:32:06.281Z,41.67
2018-10-19T09:34:36.773Z,43.10
2018-10-19T09:37:08.579Z,43.37
2018-10-19T09:39:39.744Z,42.13
2018-10-19T09:42:10.520Z,42.50
2018-10-19T09:44:41.114Z,42.70
2018-10-19T09:47:11.314Z,40.03
2018-10-19T09:49:41.241Z,40.80
2018-10-19T09:52:11.716Z,42.33
2018-10-19T09:54:41.749Z,44.67
2018-10-19T09:57:12.122Z,42.70
2018-10-19T09:59:42.347Z,41.70
2018-10-19T10:04:37.863Z,42.93
2018-10-19T10:07:08.295Z,43.43
2018-10-19T10:09:39.708Z,38.13
2018-10-19T10:12:10.136Z,43.03
2018-10-19T10:14:42.051Z,41.47
2018-10-19T10:17:12.379Z,43.37
2018-10-19T10:19:43.355Z,39.70
2018-10-19T10:22:13.716Z,43.47
2018-10-19T10:24:44.209Z,43.40
2018-10-19T10:27:14.653Z,42.80
2018-10-19T10:29:44.740Z,42.43
2018-10-19T10:32:14.882Z,41.03
2018-10-19T10:34:44.870Z,44.13
2018-10-19T10:37:15.429Z,44.13
2018-10-19T10:39:46.074Z,42.83
2018-10-19T10:42:16.747Z,43.83
2018-10-19T10:44:47.165Z,43.20
2018-10-19T10:47:17.418Z,45.73
2018-10-19T10:49:47.346Z,44.87
2018-10-19T10:52:17.363Z,44.60
2018-10-19T10:54:47.564Z,44.63
2018-10-19T10:57:17.882Z,45.43
2018-10-19T10:59:47.881Z,42.17
2018-10-19T11:02:17.891Z,37.60
2018-10-19T11:04:48.313Z,43.93
2018-10-19T11:07:18.497Z,45.00
2018-10-19T11:09:49.128Z,42.87
2018-10-19T11:12:19.087Z,41.93
2018-10-19T11:14:49.460Z,44.00
2018-10-19T11:17:19.581Z,45.33
2018-10-19T11:19:51.864Z,43.73
2018-10-19T11:22:21.908Z,41.80
2018-10-19T11:24:51.792Z,44.40
2018-10-19T11:27:21.748Z,41.67
2018-10-19T11:29:51.690Z,42.63
2018-10-19T11:32:21.653Z,41.30
2018-10-19T11:34:51.818Z,43.50
2018-10-19T11:37:21.737Z,43.77
2018-10-19T11:40:03.819Z,45.50
2018-10-19T11:42:35.707Z,37.97
2018-10-19T11:45:06.308Z,43.23
2018-10-19T11:47:37.267Z,42.70
2018-10-19T11:50:07.765Z,41.77
2018-10-19T11:52:37.762Z,41.03
2018-10-19T11:55:08.216Z,40.33
2018-10-19T11:57:39.377Z,40.93
2018-10-19T12:00:10.286Z,39.57
2018-10-19T12:02:40.476Z,41.43
2018-10-19T12:05:10.627Z,42.63
2018-10-19T12:07:40.983Z,42.30
2018-10-19T12:10:12.094Z,44.63
2018-10-19T12:12:42.483Z,42.50
2018-10-19T12:15:13.668Z,44.13
2018-10-19T12:17:45.347Z,43.10
2018-10-19T12:20:17.386Z,38.20
2018-10-19T12:22:47.307Z,42.30
2018-10-19T12:25:17.636Z,41.77
2018-10-19T12:27:47.534Z,41.30
2018-10-19T12:30:17.536Z,38.70
2018-10-19T12:32:47.473Z,40.10
2018-10-19T12:35:17.784Z,39.53
2018-10-19T12:37:47.706Z,38.87
2018-10-19T12:40:17.773Z,41.03
2018-10-19T12:42:47.694Z,39.33
2018-10-19T12:46:37.633Z,39.27
2018-10-19T12:49:07.844Z,40.43
2018-10-19T12:51:37.872Z,40.00
2018-10-19T12:54:08.279Z,39.37
2018-10-19T12:56:38.709Z,41.27
2018-10-19T12:59:09.039Z,39.90
2018-10-19T13:01:39.048Z,40.93
2018-10-19T13:04:09.023Z,40.03
2018-10-19T13:06:40.555Z,37.10
2018-10-19T13:09:12.142Z,39.33
2018-10-19T13:11:42.167Z,39.57
2018-10-19T13:14:12.298Z,40.53
2018-10-19T13:16:42.196Z,38.07
2018-10-19T13:19:12.242Z,41.37
2018-10-19T13:21:42.228Z,41.10
2018-10-19T13:24:12.410Z,36.87
2018-10-19T13:26:42.253Z,39.60
2018-10-19T13:29:12.323Z,40.60
2018-10-19T13:31:42.356Z,37.03
2018-10-19T13:34:13.993Z,39.77
2018-10-19T13:36:44.397Z,38.70
2018-10-19T13:39:15.052Z,39.10
2018-10-19T13:42:04.040Z,38.57
2018-10-19T13:44:35.595Z,38.73
2018-10-19T13:47:06.228Z,38.03
2018-10-19T13:49:37.656Z,40.47
2018-10-19T13:52:07.816Z,38.70
2018-10-19T13:54:37.691Z,39.13
2018-10-19T13:57:07.753Z,36.07
2018-10-19T13:59:38.221Z,39.23
2018-10-19T14:02:09.227Z,38.53
2018-10-19T14:04:40.627Z,38.90
2018-10-19T14:07:10.876Z,40.57
2018-10-19T14:09:40.964Z,38.53
2018-10-19T14:12:10.992Z,38.13
2018-10-19T14:14:41.329Z,39.77
2018-10-19T14:17:11.680Z,38.60
2018-10-19T14:19:48.866Z,37.63
2018-10-19T14:22:19.425Z,39.03
2018-10-19T14:24:50.593Z,39.67
2018-10-19T14:27:20.737Z,38.67
2018-10-19T14:29:51.022Z,38.53
2018-10-19T14:32:20.858Z,34.07
2018-10-19T14:34:50.900Z,37.43
2018-10-19T14:37:21.293Z,38.40
2018-10-19T14:39:51.280Z,39.60
2018-10-19T15:09:47.824Z,34.73
2018-10-19T15:12:17.546Z,35.60
2018-10-19T15:14:47.701Z,37.70
2018-10-19T15:17:17.578Z,37.47
2018-10-19T15:19:47.422Z,37.37
2018-10-19T15:22:17.367Z,34.27
2018-10-19T15:24:47.164Z,38.17
2018-10-19T15:27:17.207Z,35.60
2018-10-19T15:29:48.663Z,39.07
2018-10-19T15:32:18.552Z,36.40
2018-10-19T15:34:48.487Z,37.40
2018-10-19T15:37:18.474Z,35.03
2018-10-19T15:39:48.399Z,39.43
2018-10-19T15:42:18.415Z,35.63
2018-10-19T15:44:48.602Z,36.57
2018-10-19T15:47:18.603Z,37.93
2018-10-19T15:49:48.815Z,36.47
2018-10-19T15:52:18.676Z,36.10
2018-10-19T15:54:48.857Z,38.70
2018-10-19T15:57:18.914Z,34.40
2018-10-19T15:59:48.870Z,37.97
2018-10-19T16:02:18.924Z,38.03
2018-10-19T16:04:49.732Z,38.03
2018-10-19T16:07:20.009Z,39.07
2018-10-19T16:09:50.008Z,35.73
2018-10-19T16:12:21.473Z,38.47
2018-10-19T16:14:51.569Z,38.87
2018-10-19T16:17:21.588Z,37.17
2018-10-19T16:19:51.617Z,37.17
2018-10-19T16:22:21.656Z,37.13
2018-10-19T16:24:51.653Z,37.70
2018-10-19T16:27:21.860Z,37.90
2018-10-19T16:29:51.927Z,37.60
2018-10-19T16:32:21.897Z,36.53
2018-10-19T16:34:51.927Z,37.80
2018-10-19T16:37:21.860Z,35.77
2018-10-19T16:39:51.797Z,36.83
2018-10-19T16:42:23.172Z,34.13
2018-10-19T16:44:53.179Z,36.00
2018-10-19T16:47:23.230Z,37.30
2018-10-19T16:49:53.483Z,37.13
2018-10-19T16:52:23.503Z,34.80
2018-10-19T16:54:53.291Z,34.67
2018-10-19T16:57:23.688Z,37.63
2018-10-19T16:59:53.663Z,35.40
2018-10-19T17:02:23.628Z,36.80
2018-10-19T17:04:57.217Z,35.97
2018-10-19T17:07:29.433Z,37.97
2018-10-19T17:10:00.848Z,40.00
2018-10-19T17:12:33.238Z,41.47
2018-10-19T17:15:03.427Z,43.43
2018-10-19T17:17:33.349Z,45.53
2018-10-19T17:20:08.434Z,41.90
2018-10-19T17:22:39.798Z,40.87
2018-10-19T17:25:13.187Z,46.90
2018-10-19T17:27:45.165Z,50.07
2018-10-19T17:30:18.713Z,43.40
2018-10-19T17:32:49.606Z,42.83
2018-10-19T17:35:21.432Z,42.33
2018-10-19T17:37:51.473Z,40.80
2018-10-19T17:40:21.426Z,41.37
2018-10-19T17:42:51.607Z,41.77
2018-10-19T17:45:25.000Z,42.10
2018-10-19T17:47:59.060Z,42.03
2018-10-19T17:50:31.375Z,40.03
2018-10-19T17:53:15.464Z,42.77
2018-10-19T17:55:45.667Z,40.87
2018-10-19T17:58:15.820Z,42.40
2018-10-19T18:00:45.999Z,43.50
2018-10-19T18:03:16.238Z,42.07
2018-10-19T18:05:59.447Z,41.87
2018-10-19T18:08:29.990Z,44.10
2018-10-19T18:11:01.863Z,44.47
2018-10-19T18:13:31.972Z,44.80
2018-10-19T18:16:03.644Z,46.80
2018-10-19T18:18:33.632Z,45.57
2018-10-19T18:21:03.705Z,44.57
2018-10-19T18:23:33.895Z,43.77
2018-10-19T18:26:04.109Z,44.97
2018-10-19T18:28:34.998Z,43.70
2018-10-19T18:31:05.392Z,45.53
2018-10-19T18:33:35.354Z,44.57
2018-10-19T18:36:05.759Z,45.47
2018-10-19T18:38:36.040Z,43.43
2018-10-19T18:41:07.960Z,44.00
2018-10-19T18:43:38.726Z,44.20
2018-10-19T18:46:11.170Z,45.87
2018-10-19T18:48:41.329Z,46.03
2018-10-19T18:51:12.539Z,45.30
2018-10-19T18:53:43.066Z,46.07
2018-10-19T18:56:15.633Z,46.70
2018-10-19T18:58:46.976Z,48.10
2018-10-19T19:01:20.583Z,47.60
2018-10-19T19:03:51.881Z,52.03
2018-10-19T19:06:22.257Z,51.83
2018-10-19T19:08:52.890Z,49.77
2018-10-19T19:11:24.139Z,50.00
2018-10-19T19:13:55.581Z,50.70
2018-10-19T19:16:30.999Z,49.27
2018-10-19T19:19:01.216Z,48.93
2018-10-19T19:21:31.992Z,49.03
2018-10-19T19:24:08.766Z,50.33
2018-10-19T19:26:39.500Z,47.87
2018-10-19T19:29:09.761Z,50.97
2018-10-19T19:31:45.492Z,54.07
2018-10-19T19:34:25.411Z,53.57
2018-10-19T19:36:59.902Z,54.03
2018-10-19T19:39:30.856Z,53.37
2018-10-19T19:42:06.832Z,54.33
2018-10-19T19:44:36.864Z,56.70
2018-10-19T19:47:07.192Z,55.80
2018-10-19T19:49:39.104Z,55.77
2018-10-19T19:52:09.090Z,55.20
2018-10-19T19:54:39.155Z,55.93
2018-10-19T19:57:09.261Z,58.07
2018-10-19T19:59:39.176Z,56.30
2018-10-19T20:02:09.094Z,54.67
2018-10-19T20:04:39.268Z,56.50
2018-10-19T20:07:09.072Z,54.50
2018-10-19T20:09:38.972Z,57.00
2018-10-19T20:12:09.146Z,59.53
2018-10-19T20:14:39.079Z,52.83
2018-10-19T20:17:09.138Z,55.70
2018-10-19T20:19:39.420Z,56.97
2018-10-19T20:22:09.267Z,57.47
2018-10-19T20:24:39.318Z,59.53
2018-10-19T20:27:09.427Z,57.93
2018-10-19T20:29:39.429Z,58.77
2018-10-19T20:32:09.741Z,55.90
2018-10-19T20:34:39.644Z,55.70
2018-10-19T20:37:09.575Z,55.97
2018-10-19T20:39:40.853Z,57.80
2018-10-19T20:42:11.075Z,55.90
2018-10-19T20:44:41.466Z,55.23
2018-10-19T20:47:12.376Z,56.20
2018-10-19T20:49:43.154Z,55.40
2018-10-19T20:52:13.132Z,53.80
2018-10-19T20:54:42.990Z,55.90
2018-10-19T20:57:15.734Z,55.97
2018-10-19T20:59:45.535Z,58.13
2018-10-19T21:02:15.295Z,56.67
2018-10-19T21:04:45.112Z,54.90
2018-10-19T21:07:15.010Z,57.00
2018-10-19T21:09:44.745Z,57.77
2018-10-19T21:12:14.756Z,59.43
2018-10-19T21:14:45.104Z,60.87
2018-10-19T21:17:14.980Z,62.10
2018-10-19T21:19:46.036Z,58.73
2018-10-19T21:22:15.839Z,59.33
2018-10-19T21:24:45.653Z,59.90
2018-10-19T21:27:15.517Z,60.43
2018-10-19T21:29:45.555Z,60.87
2018-10-19T21:32:15.383Z,59.53
2018-10-19T21:34:45.162Z,57.53
2018-10-19T21:37:15.055Z,57.53
2018-10-19T21:39:44.917Z,56.77
2018-10-19T21:42:14.720Z,57.50
2018-10-19T21:44:44.910Z,58.00
2018-10-19T21:47:14.917Z,61.83
2018-10-19T21:49:44.647Z,59.70
2018-10-19T21:52:14.445Z,61.90
2018-10-19T21:54:44.618Z,59.23
2018-10-19T21:57:14.576Z,60.27
2018-10-19T21:59:44.468Z,59.57
2018-10-19T22:02:14.201Z,59.90
2018-10-19T22:04:43.916Z,59.33
2018-10-19T22:07:13.623Z,61.17
2018-10-19T22:09:43.824Z,59.13
2018-10-19T22:12:13.647Z,55.13
2018-10-19T22:14:43.351Z,54.57
2018-10-19T22:17:13.255Z,55.90
2018-10-19T22:19:43.399Z,56.43
2018-10-19T22:22:13.218Z,58.87
2018-10-19T22:24:43.462Z,61.03
2018-10-19T22:27:13.302Z,61.40
2018-10-19T22:29:43.211Z,59.40
2018-10-19T22:32:14.339Z,64.50
2018-10-19T22:34:44.288Z,66.57
2018-10-19T22:37:14.167Z,67.13
2018-10-19T22:39:44.064Z,61.90
2018-10-19T22:42:13.740Z,61.73
2018-10-19T22:44:43.478Z,64.27
2018-10-19T22:47:13.394Z,64.10
2018-10-19T22:49:43.049Z,60.67
2018-10-19T22:52:12.867Z,59.77
2018-10-19T22:54:42.847Z,60.53
2018-10-19T22:57:12.560Z,63.23
2018-10-19T22:59:43.206Z,65.90
2018-10-19T23:02:14.181Z,67.03
2018-10-19T23:04:57.138Z,70.40
2018-10-19T23:07:27.489Z,70.03
2018-10-19T23:09:58.479Z,65.63
2018-10-19T23:12:39.084Z,66.57
2018-10-19T23:15:10.024Z,65.70
2018-10-19T23:17:40.195Z,65.03
2018-10-19T23:20:10.444Z,63.73
2018-10-19T23:22:40.820Z,61.73
2018-10-19T23:25:10.581Z,57.97
2018-10-19T23:27:40.326Z,60.10
2018-10-19T23:30:10.136Z,60.47
2018-10-19T23:32:39.878Z,59.97
2018-10-19T23:35:10.094Z,63.83
2018-10-19T23:37:39.880Z,71.97
2018-10-19T23:40:13.180Z,67.90
2018-10-19T23:42:45.855Z,67.07
2018-10-19T23:45:17.969Z,65.07
2018-10-19T23:47:47.721Z,62.53
2018-10-19T23:50:17.514Z,59.63
2018-10-19T23:52:47.281Z,61.67
2018-10-19T23:55:17.220Z,64.70
2018-10-19T23:57:47.397Z,64.00
